sensor_id;sensor_type;location;lat;lon;timestamp;temperature;humidity
61201;DHT22;47065;52.898;6.992;2023-02-22T00:00:39;8.50;99.90
61201;DHT22;47065;52.898;6.992;2023-02-22T00:03:20;8.50;99.90
61201;DHT22;47065;52.898;6.992;2023-02-22T00:05:52;8.50;99.90
61201;DHT22;47065;52.898;6.992;2023-02-22T00:08:22;8.50;99.90
61201;DHT22;47065;52.898;6.992;2023-02-22T00:10:48;8.50;99.90
61201;DHT22;47065;52.898;6.992;2023-02-22T00:13:17;8.50;99.90
61201;DHT22;47065;52.898;6.992;2023-02-22T00:15:43;8.50;99.90
61201;DHT22;47065;52.898;6.992;2023-02-22T00:18:12;8.50;99.90
61201;DHT22;47065;52.898;6.992;2023-02-22T00:20:39;8.50;99.90
61201;DHT22;47065;52.898;6.992;2023-02-22T00:23:07;8.50;99.90
61201;DHT22;47065;52.898;6.992;2023-02-22T00:25:33;8.50;99.90
61201;DHT22;47065;52.898;6.992;2023-02-22T00:28:00;8.50;99.90
61201;DHT22;47065;52.898;6.992;2023-02-22T00:30:28;8.50;99.90
61201;DHT22;47065;52.898;6.992;2023-02-22T00:32:55;8.50;99.90
61201;DHT22;47065;52.898;6.992;2023-02-22T00:35:26;8.50;99.90
61201;DHT22;47065;52.898;6.992;2023-02-22T00:37:54;8.50;99.90
61201;DHT22;47065;52.898;6.992;2023-02-22T00:40:29;8.50;99.90
61201;DHT22;47065;52.898;6.992;2023-02-22T00:42:56;8.50;99.90
61201;DHT22;47065;52.898;6.992;2023-02-22T00:45:24;8.50;99.90
61201;DHT22;47065;52.898;6.992;2023-02-22T00:47:51;8.50;99.90
61201;DHT22;47065;52.898;6.992;2023-02-22T00:50:19;8.50;99.90
61201;DHT22;47065;52.898;6.992;2023-02-22T00:52:45;8.50;99.90
61201;DHT22;47065;52.898;6.992;2023-02-22T00:55:21;8.50;99.90
61201;DHT22;47065;52.898;6.992;2023-02-22T00:57:47;8.50;99.90
61201;DHT22;47065;52.898;6.992;2023-02-22T01:00:17;8.40;99.90
61201;DHT22;47065;52.898;6.992;2023-02-22T01:02:43;8.50;99.90
61201;DHT22;47065;52.898;6.992;2023-02-22T01:05:12;8.50;99.90
61201;DHT22;47065;52.898;6.992;2023-02-22T01:07:39;8.40;99.90
61201;DHT22;47065;52.898;6.992;2023-02-22T01:10:06;8.50;99.90
61201;DHT22;47065;52.898;6.992;2023-02-22T01:12:33;8.40;99.90
61201;DHT22;47065;52.898;6.992;2023-02-22T01:15:00;8.50;99.90
61201;DHT22;47065;52.898;6.992;2023-02-22T01:17:28;8.40;99.90
61201;DHT22;47065;52.898;6.992;2023-02-22T01:19:54;8.50;99.90
61201;DHT22;47065;52.898;6.992;2023-02-22T01:22:20;8.40;99.90
61201;DHT22;47065;52.898;6.992;2023-02-22T01:24:47;8.40;99.90
61201;DHT22;47065;52.898;6.992;2023-02-22T01:27:13;8.50;99.90
61201;DHT22;47065;52.898;6.992;2023-02-22T01:29:39;8.40;99.90
61201;DHT22;47065;52.898;6.992;2023-02-22T01:32:05;8.40;99.90
61201;DHT22;47065;52.898;6.992;2023-02-22T01:34:31;8.50;99.90
61201;DHT22;47065;52.898;6.992;2023-02-22T01:37:00;8.40;99.90
61201;DHT22;47065;52.898;6.992;2023-02-22T01:39:26;8.40;99.90
61201;DHT22;47065;52.898;6.992;2023-02-22T01:41:52;8.40;99.90
61201;DHT22;47065;52.898;6.992;2023-02-22T01:44:30;8.40;99.90
61201;DHT22;47065;52.898;6.992;2023-02-22T01:46:58;8.40;99.90
61201;DHT22;47065;52.898;6.992;2023-02-22T01:49:41;8.40;99.90
61201;DHT22;47065;52.898;6.992;2023-02-22T01:52:13;8.40;99.90
61201;DHT22;47065;52.898;6.992;2023-02-22T01:54:54;8.40;99.90
61201;DHT22;47065;52.898;6.992;2023-02-22T01:57:24;8.40;99.90
61201;DHT22;47065;52.898;6.992;2023-02-22T01:59:53;8.40;99.90
61201;DHT22;47065;52.898;6.992;2023-02-22T02:02:20;8.40;99.90
61201;DHT22;47065;52.898;6.992;2023-02-22T02:04:46;8.40;99.90
61201;DHT22;47065;52.898;6.992;2023-02-22T02:07:14;8.40;99.90
61201;DHT22;47065;52.898;6.992;2023-02-22T02:09:59;8.40;99.90
61201;DHT22;47065;52.898;6.992;2023-02-22T02:12:27;8.40;99.90
61201;DHT22;47065;52.898;6.992;2023-02-22T02:15:25;8.40;99.90
61201;DHT22;47065;52.898;6.992;2023-02-22T02:17:54;8.40;99.90
61201;DHT22;47065;52.898;6.992;2023-02-22T02:21:33;8.40;99.90
61201;DHT22;47065;52.898;6.992;2023-02-22T02:34:20;8.40;99.90
61201;DHT22;47065;52.898;6.992;2023-02-22T02:40:31;8.40;99.90
61201;DHT22;47065;52.898;6.992;2023-02-22T02:43:38;8.40;99.90
61201;DHT22;47065;52.898;6.992;2023-02-22T02:46:11;8.40;99.90
61201;DHT22;47065;52.898;6.992;2023-02-22T02:48:42;8.40;99.90
61201;DHT22;47065;52.898;6.992;2023-02-22T02:51:12;8.40;99.90
61201;DHT22;47065;52.898;6.992;2023-02-22T02:53:43;8.40;99.90
61201;DHT22;47065;52.898;6.992;2023-02-22T02:56:11;8.40;99.90
61201;DHT22;47065;52.898;6.992;2023-02-22T02:58:48;8.40;99.90
61201;DHT22;47065;52.898;6.992;2023-02-22T03:01:21;8.40;99.90
61201;DHT22;47065;52.898;6.992;2023-02-22T03:10:06;8.40;99.90
61201;DHT22;47065;52.898;6.992;2023-02-22T03:12:48;8.30;99.90
61201;DHT22;47065;52.898;6.992;2023-02-22T03:15:51;8.40;99.90
61201;DHT22;47065;52.898;6.992;2023-02-22T03:21:09;8.40;99.90
61201;DHT22;47065;52.898;6.992;2023-02-22T03:23:37;8.30;99.90
61201;DHT22;47065;52.898;6.992;2023-02-22T03:26:15;8.40;99.90
61201;DHT22;47065;52.898;6.992;2023-02-22T03:28:45;8.30;99.90
61201;DHT22;47065;52.898;6.992;2023-02-22T03:31:21;8.30;99.90
61201;DHT22;47065;52.898;6.992;2023-02-22T03:33:59;8.40;99.90
61201;DHT22;47065;52.898;6.992;2023-02-22T03:36:39;8.30;99.90
61201;DHT22;47065;52.898;6.992;2023-02-22T03:39:09;8.30;99.90
61201;DHT22;47065;52.898;6.992;2023-02-22T03:41:38;8.30;99.90
61201;DHT22;47065;52.898;6.992;2023-02-22T03:44:08;8.30;99.90
61201;DHT22;47065;52.898;6.992;2023-02-22T03:46:38;8.30;99.90
61201;DHT22;47065;52.898;6.992;2023-02-22T03:49:25;8.30;99.90
61201;DHT22;47065;52.898;6.992;2023-02-22T03:51:54;8.30;99.90
61201;DHT22;47065;52.898;6.992;2023-02-22T03:54:20;8.30;99.90
61201;DHT22;47065;52.898;6.992;2023-02-22T03:56:53;8.30;99.90
61201;DHT22;47065;52.898;6.992;2023-02-22T03:59:20;8.30;99.90
61201;DHT22;47065;52.898;6.992;2023-02-22T04:01:52;8.30;99.90
61201;DHT22;47065;52.898;6.992;2023-02-22T04:04:18;8.30;99.90
61201;DHT22;47065;52.898;6.992;2023-02-22T04:06:45;8.30;99.90
61201;DHT22;47065;52.898;6.992;2023-02-22T04:09:13;8.30;99.90
61201;DHT22;47065;52.898;6.992;2023-02-22T04:11:38;8.30;99.90
61201;DHT22;47065;52.898;6.992;2023-02-22T04:14:04;8.30;99.90
61201;DHT22;47065;52.898;6.992;2023-02-22T04:16:30;8.20;99.90
61201;DHT22;47065;52.898;6.992;2023-02-22T04:18:55;8.30;99.90
61201;DHT22;47065;52.898;6.992;2023-02-22T04:21:21;8.30;99.90
61201;DHT22;47065;52.898;6.992;2023-02-22T04:23:47;8.20;99.90
61201;DHT22;47065;52.898;6.992;2023-02-22T04:26:12;8.20;99.90
61201;DHT22;47065;52.898;6.992;2023-02-22T04:28:38;8.20;99.90
61201;DHT22;47065;52.898;6.992;2023-02-22T04:31:04;8.20;99.90
61201;DHT22;47065;52.898;6.992;2023-02-22T04:33:30;8.20;99.90
61201;DHT22;47065;52.898;6.992;2023-02-22T04:35:55;8.10;99.90
61201;DHT22;47065;52.898;6.992;2023-02-22T04:38:22;8.10;99.90
61201;DHT22;47065;52.898;6.992;2023-02-22T04:40:51;8.10;99.90
61201;DHT22;47065;52.898;6.992;2023-02-22T04:43:17;8.10;99.90
61201;DHT22;47065;52.898;6.992;2023-02-22T04:45:43;8.00;99.90
61201;DHT22;47065;52.898;6.992;2023-02-22T04:48:09;8.00;99.90
61201;DHT22;47065;52.898;6.992;2023-02-22T04:50:34;8.00;99.90
61201;DHT22;47065;52.898;6.992;2023-02-22T04:53:00;8.00;99.90
61201;DHT22;47065;52.898;6.992;2023-02-22T04:55:26;8.00;99.90
61201;DHT22;47065;52.898;6.992;2023-02-22T04:57:53;8.00;99.90
61201;DHT22;47065;52.898;6.992;2023-02-22T05:00:19;8.00;99.90
61201;DHT22;47065;52.898;6.992;2023-02-22T05:02:47;7.90;99.90
61201;DHT22;47065;52.898;6.992;2023-02-22T05:05:18;8.00;99.90
61201;DHT22;47065;52.898;6.992;2023-02-22T05:07:46;7.90;99.90
61201;DHT22;47065;52.898;6.992;2023-02-22T05:10:12;7.90;99.90
61201;DHT22;47065;52.898;6.992;2023-02-22T05:12:38;7.90;99.90
61201;DHT22;47065;52.898;6.992;2023-02-22T05:15:05;7.90;99.90
61201;DHT22;47065;52.898;6.992;2023-02-22T05:17:30;7.90;99.90
61201;DHT22;47065;52.898;6.992;2023-02-22T05:19:56;7.90;99.90
61201;DHT22;47065;52.898;6.992;2023-02-22T05:22:22;7.80;99.90
61201;DHT22;47065;52.898;6.992;2023-02-22T05:24:49;7.80;99.90
61201;DHT22;47065;52.898;6.992;2023-02-22T05:27:17;7.80;99.90
61201;DHT22;47065;52.898;6.992;2023-02-22T05:29:43;7.80;99.90
61201;DHT22;47065;52.898;6.992;2023-02-22T05:32:09;7.80;99.90
61201;DHT22;47065;52.898;6.992;2023-02-22T05:34:36;7.80;99.90
61201;DHT22;47065;52.898;6.992;2023-02-22T05:37:02;7.80;99.90
61201;DHT22;47065;52.898;6.992;2023-02-22T05:39:28;7.80;99.90
61201;DHT22;47065;52.898;6.992;2023-02-22T05:41:54;7.80;99.90
61201;DHT22;47065;52.898;6.992;2023-02-22T05:44:20;7.80;99.90
61201;DHT22;47065;52.898;6.992;2023-02-22T05:46:45;7.80;99.90
61201;DHT22;47065;52.898;6.992;2023-02-22T05:49:11;7.80;99.90
61201;DHT22;47065;52.898;6.992;2023-02-22T05:51:36;7.80;99.90
61201;DHT22;47065;52.898;6.992;2023-02-22T05:54:02;7.80;99.90
61201;DHT22;47065;52.898;6.992;2023-02-22T05:56:28;7.80;99.90
61201;DHT22;47065;52.898;6.992;2023-02-22T05:58:55;7.80;99.90
61201;DHT22;47065;52.898;6.992;2023-02-22T06:01:21;7.80;99.90
61201;DHT22;47065;52.898;6.992;2023-02-22T06:03:48;7.80;99.90
61201;DHT22;47065;52.898;6.992;2023-02-22T06:06:15;7.80;99.90
61201;DHT22;47065;52.898;6.992;2023-02-22T06:08:40;7.80;99.90
61201;DHT22;47065;52.898;6.992;2023-02-22T06:11:06;7.80;99.90
61201;DHT22;47065;52.898;6.992;2023-02-22T06:13:34;7.90;99.90
61201;DHT22;47065;52.898;6.992;2023-02-22T06:16:00;7.80;99.90
61201;DHT22;47065;52.898;6.992;2023-02-22T06:18:26;7.80;99.90
61201;DHT22;47065;52.898;6.992;2023-02-22T06:20:54;7.80;99.90
61201;DHT22;47065;52.898;6.992;2023-02-22T06:23:20;7.80;99.90
61201;DHT22;47065;52.898;6.992;2023-02-22T06:25:46;7.80;99.90
61201;DHT22;47065;52.898;6.992;2023-02-22T06:28:12;7.80;99.90
61201;DHT22;47065;52.898;6.992;2023-02-22T06:30:39;7.80;99.90
61201;DHT22;47065;52.898;6.992;2023-02-22T06:33:07;7.70;99.90
61201;DHT22;47065;52.898;6.992;2023-02-22T06:35:33;7.80;99.90
61201;DHT22;47065;52.898;6.992;2023-02-22T06:37:59;7.80;99.90
61201;DHT22;47065;52.898;6.992;2023-02-22T06:40:24;7.80;99.90
61201;DHT22;47065;52.898;6.992;2023-02-22T06:42:54;7.80;99.90
61201;DHT22;47065;52.898;6.992;2023-02-22T06:45:19;7.70;99.90
61201;DHT22;47065;52.898;6.992;2023-02-22T06:47:45;7.80;99.90
61201;DHT22;47065;52.898;6.992;2023-02-22T06:50:23;7.70;99.90
61201;DHT22;47065;52.898;6.992;2023-02-22T06:52:49;7.70;99.90
61201;DHT22;47065;52.898;6.992;2023-02-22T06:55:21;7.70;99.90
61201;DHT22;47065;52.898;6.992;2023-02-22T06:57:46;7.70;99.90
61201;DHT22;47065;52.898;6.992;2023-02-22T07:00:17;7.70;99.90
61201;DHT22;47065;52.898;6.992;2023-02-22T07:02:43;7.70;99.90
61201;DHT22;47065;52.898;6.992;2023-02-22T07:05:11;7.70;99.90
61201;DHT22;47065;52.898;6.992;2023-02-22T07:07:38;7.70;99.90
61201;DHT22;47065;52.898;6.992;2023-02-22T07:10:13;7.70;99.90
61201;DHT22;47065;52.898;6.992;2023-02-22T07:12:39;7.70;99.90
61201;DHT22;47065;52.898;6.992;2023-02-22T07:15:06;7.70;99.90
61201;DHT22;47065;52.898;6.992;2023-02-22T07:17:31;7.70;99.90
61201;DHT22;47065;52.898;6.992;2023-02-22T07:19:57;7.70;99.90
61201;DHT22;47065;52.898;6.992;2023-02-22T07:22:23;7.80;99.90
61201;DHT22;47065;52.898;6.992;2023-02-22T07:24:48;7.70;99.90
61201;DHT22;47065;52.898;6.992;2023-02-22T07:27:14;7.70;99.90
61201;DHT22;47065;52.898;6.992;2023-02-22T07:29:41;7.70;99.90
61201;DHT22;47065;52.898;6.992;2023-02-22T07:32:07;7.70;99.90
61201;DHT22;47065;52.898;6.992;2023-02-22T07:34:33;7.80;99.90
61201;DHT22;47065;52.898;6.992;2023-02-22T07:36:58;7.80;99.90
61201;DHT22;47065;52.898;6.992;2023-02-22T07:39:24;7.80;99.90
61201;DHT22;47065;52.898;6.992;2023-02-22T07:41:49;7.80;99.90
61201;DHT22;47065;52.898;6.992;2023-02-22T07:44:15;7.80;99.90
61201;DHT22;47065;52.898;6.992;2023-02-22T07:46:46;7.80;99.90
61201;DHT22;47065;52.898;6.992;2023-02-22T07:49:12;7.80;99.90
61201;DHT22;47065;52.898;6.992;2023-02-22T07:51:38;7.90;99.90
61201;DHT22;47065;52.898;6.992;2023-02-22T07:54:04;7.90;99.90
61201;DHT22;47065;52.898;6.992;2023-02-22T07:56:29;8.00;99.90
61201;DHT22;47065;52.898;6.992;2023-02-22T07:58:55;8.00;99.90
61201;DHT22;47065;52.898;6.992;2023-02-22T08:01:21;8.00;99.90
61201;DHT22;47065;52.898;6.992;2023-02-22T08:03:46;8.00;99.90
61201;DHT22;47065;52.898;6.992;2023-02-22T08:06:12;8.10;99.90
61201;DHT22;47065;52.898;6.992;2023-02-22T08:08:38;8.10;99.90
61201;DHT22;47065;52.898;6.992;2023-02-22T08:11:04;8.10;99.90
61201;DHT22;47065;52.898;6.992;2023-02-22T08:15:57;8.20;99.90
61201;DHT22;47065;52.898;6.992;2023-02-22T08:18:24;8.20;99.90
61201;DHT22;47065;52.898;6.992;2023-02-22T08:20:51;8.20;99.90
61201;DHT22;47065;52.898;6.992;2023-02-22T08:23:19;8.30;99.90
61201;DHT22;47065;52.898;6.992;2023-02-22T08:25:45;8.30;99.90
61201;DHT22;47065;52.898;6.992;2023-02-22T08:28:13;8.30;99.90
61201;DHT22;47065;52.898;6.992;2023-02-22T08:30:40;8.30;99.90
61201;DHT22;47065;52.898;6.992;2023-02-22T08:33:09;8.30;99.90
61201;DHT22;47065;52.898;6.992;2023-02-22T08:35:35;8.30;99.90
61201;DHT22;47065;52.898;6.992;2023-02-22T08:38:04;8.30;99.90
61201;DHT22;47065;52.898;6.992;2023-02-22T08:40:32;8.30;99.90
61201;DHT22;47065;52.898;6.992;2023-02-22T08:42:58;8.20;99.90
61201;DHT22;47065;52.898;6.992;2023-02-22T08:45:24;8.20;99.90
61201;DHT22;47065;52.898;6.992;2023-02-22T08:47:50;8.20;99.90
61201;DHT22;47065;52.898;6.992;2023-02-22T08:50:27;8.10;99.90
61201;DHT22;47065;52.898;6.992;2023-02-22T08:52:55;8.10;99.90
61201;DHT22;47065;52.898;6.992;2023-02-22T08:55:25;8.10;99.90
61201;DHT22;47065;52.898;6.992;2023-02-22T08:57:51;8.00;99.90
61201;DHT22;47065;52.898;6.992;2023-02-22T09:00:18;8.00;99.90
61201;DHT22;47065;52.898;6.992;2023-02-22T09:02:43;7.90;99.90
61201;DHT22;47065;52.898;6.992;2023-02-22T09:05:09;7.90;99.90
61201;DHT22;47065;52.898;6.992;2023-02-22T09:07:35;7.80;99.90
61201;DHT22;47065;52.898;6.992;2023-02-22T09:10:01;7.80;99.90
61201;DHT22;47065;52.898;6.992;2023-02-22T09:12:26;7.80;99.90
61201;DHT22;47065;52.898;6.992;2023-02-22T09:14:52;7.80;99.90
61201;DHT22;47065;52.898;6.992;2023-02-22T09:17:18;7.70;99.90
61201;DHT22;47065;52.898;6.992;2023-02-22T09:19:43;7.70;99.90
61201;DHT22;47065;52.898;6.992;2023-02-22T09:22:10;7.60;99.90
61201;DHT22;47065;52.898;6.992;2023-02-22T09:24:35;7.60;99.90
61201;DHT22;47065;52.898;6.992;2023-02-22T09:27:01;7.70;99.90
61201;DHT22;47065;52.898;6.992;2023-02-22T09:29:29;7.60;99.90
61201;DHT22;47065;52.898;6.992;2023-02-22T09:31:55;7.70;99.90
61201;DHT22;47065;52.898;6.992;2023-02-22T09:34:22;7.70;99.90
61201;DHT22;47065;52.898;6.992;2023-02-22T09:36:55;7.70;99.90
61201;DHT22;47065;52.898;6.992;2023-02-22T09:39:22;7.60;99.90
61201;DHT22;47065;52.898;6.992;2023-02-22T09:42:11;7.60;99.90
61201;DHT22;47065;52.898;6.992;2023-02-22T09:44:55;7.60;99.90
61201;DHT22;47065;52.898;6.992;2023-02-22T09:47:56;7.60;99.90
61201;DHT22;47065;52.898;6.992;2023-02-22T09:50:27;7.60;99.90
61201;DHT22;47065;52.898;6.992;2023-02-22T09:52:59;7.60;99.90
61201;DHT22;47065;52.898;6.992;2023-02-22T09:55:48;7.60;99.90
61201;DHT22;47065;52.898;6.992;2023-02-22T09:58:37;7.60;99.90
61201;DHT22;47065;52.898;6.992;2023-02-22T10:04:33;7.60;99.90
61201;DHT22;47065;52.898;6.992;2023-02-22T10:07:25;7.60;99.90
61201;DHT22;47065;52.898;6.992;2023-02-22T10:09:54;7.60;99.90
61201;DHT22;47065;52.898;6.992;2023-02-22T10:12:32;7.60;99.90
61201;DHT22;47065;52.898;6.992;2023-02-22T10:15:06;7.60;99.90
61201;DHT22;47065;52.898;6.992;2023-02-22T10:23:23;7.70;99.90
61201;DHT22;47065;52.898;6.992;2023-02-22T10:26:00;7.70;99.90
61201;DHT22;47065;52.898;6.992;2023-02-22T10:28:40;7.70;99.90
61201;DHT22;47065;52.898;6.992;2023-02-22T10:31:14;7.70;99.90
61201;DHT22;47065;52.898;6.992;2023-02-22T10:33:47;7.80;99.90
61201;DHT22;47065;52.898;6.992;2023-02-22T10:36:17;7.80;99.90
61201;DHT22;47065;52.898;6.992;2023-02-22T10:38:54;7.80;99.90
61201;DHT22;47065;52.898;6.992;2023-02-22T10:41:30;7.80;99.90
61201;DHT22;47065;52.898;6.992;2023-02-22T10:43:56;7.80;99.90
61201;DHT22;47065;52.898;6.992;2023-02-22T10:46:24;7.90;99.90
61201;DHT22;47065;52.898;6.992;2023-02-22T10:48:53;7.90;99.90
61201;DHT22;47065;52.898;6.992;2023-02-22T10:51:20;7.90;99.90
61201;DHT22;47065;52.898;6.992;2023-02-22T10:54:18;8.00;99.90
61201;DHT22;47065;52.898;6.992;2023-02-22T10:56:50;7.90;99.90
61201;DHT22;47065;52.898;6.992;2023-02-22T10:59:33;7.90;99.90
61201;DHT22;47065;52.898;6.992;2023-02-22T11:02:22;7.90;99.90
61201;DHT22;47065;52.898;6.992;2023-02-22T11:04:53;7.90;99.90
61201;DHT22;47065;52.898;6.992;2023-02-22T11:07:25;7.90;99.90
61201;DHT22;47065;52.898;6.992;2023-02-22T11:09:57;7.90;99.90
61201;DHT22;47065;52.898;6.992;2023-02-22T11:12:34;7.90;99.90
61201;DHT22;47065;52.898;6.992;2023-02-22T11:15:33;8.00;99.90
61201;DHT22;47065;52.898;6.992;2023-02-22T11:18:00;8.00;99.90
61201;DHT22;47065;52.898;6.992;2023-02-22T11:20:35;8.10;99.90
61201;DHT22;47065;52.898;6.992;2023-02-22T11:23:04;8.10;99.90
61201;DHT22;47065;52.898;6.992;2023-02-22T11:25:37;8.10;99.90
61201;DHT22;47065;52.898;6.992;2023-02-22T11:28:27;8.10;99.90
61201;DHT22;47065;52.898;6.992;2023-02-22T11:31:15;8.20;99.90
61201;DHT22;47065;52.898;6.992;2023-02-22T11:34:00;8.20;99.90
61201;DHT22;47065;52.898;6.992;2023-02-22T11:36:32;8.20;99.90
61201;DHT22;47065;52.898;6.992;2023-02-22T11:39:03;8.30;99.90
61201;DHT22;47065;52.898;6.992;2023-02-22T11:41:32;8.30;99.90
61201;DHT22;47065;52.898;6.992;2023-02-22T11:46:46;8.30;99.90
61201;DHT22;47065;52.898;6.992;2023-02-22T11:49:13;8.40;99.90
61201;DHT22;47065;52.898;6.992;2023-02-22T11:52:15;8.40;99.90
61201;DHT22;47065;52.898;6.992;2023-02-22T11:55:26;8.40;99.90
61201;DHT22;47065;52.898;6.992;2023-02-22T12:11:41;8.60;99.90
61201;DHT22;47065;52.898;6.992;2023-02-22T12:17:16;8.60;99.90
61201;DHT22;47065;52.898;6.992;2023-02-22T12:20:37;8.60;99.90
61201;DHT22;47065;52.898;6.992;2023-02-22T12:22:46;8.60;99.90
61201;DHT22;47065;52.898;6.992;2023-02-22T12:25:19;8.60;99.90
61201;DHT22;47065;52.898;6.992;2023-02-22T12:27:49;8.60;99.90
61201;DHT22;47065;52.898;6.992;2023-02-22T12:33:05;8.60;99.90
61201;DHT22;47065;52.898;6.992;2023-02-22T12:35:39;8.60;99.90
61201;DHT22;47065;52.898;6.992;2023-02-22T12:43:40;8.70;99.90
61201;DHT22;47065;52.898;6.992;2023-02-22T12:46:33;8.70;99.90
61201;DHT22;47065;52.898;6.992;2023-02-22T12:54:37;8.80;99.90
61201;DHT22;47065;52.898;6.992;2023-02-22T12:59:51;8.90;99.90
61201;DHT22;47065;52.898;6.992;2023-02-22T13:02:20;8.90;99.90
61201;DHT22;47065;52.898;6.992;2023-02-22T13:04:47;8.90;99.90
61201;DHT22;47065;52.898;6.992;2023-02-22T13:07:47;9.00;99.90
61201;DHT22;47065;52.898;6.992;2023-02-22T13:16:10;9.00;99.90
61201;DHT22;47065;52.898;6.992;2023-02-22T13:21:48;9.10;99.90
61201;DHT22;47065;52.898;6.992;2023-02-22T13:24:27;9.10;99.90
61201;DHT22;47065;52.898;6.992;2023-02-22T13:27:12;9.10;99.90
61201;DHT22;47065;52.898;6.992;2023-02-22T13:29:46;9.20;99.90
61201;DHT22;47065;52.898;6.992;2023-02-22T13:32:35;9.10;99.90
61201;DHT22;47065;52.898;6.992;2023-02-22T13:35:26;9.20;99.90
61201;DHT22;47065;52.898;6.992;2023-02-22T13:41:14;9.30;99.90
61201;DHT22;47065;52.898;6.992;2023-02-22T13:44:05;9.30;99.90
61201;DHT22;47065;52.898;6.992;2023-02-22T13:52:20;9.40;99.90
61201;DHT22;47065;52.898;6.992;2023-02-22T13:54:54;9.40;99.90
61201;DHT22;47065;52.898;6.992;2023-02-22T13:57:25;9.40;99.90
61201;DHT22;47065;52.898;6.992;2023-02-22T14:00:36;9.40;99.90
61201;DHT22;47065;52.898;6.992;2023-02-22T14:10:59;9.60;99.90
61201;DHT22;47065;52.898;6.992;2023-02-22T14:13:26;9.60;99.90
61201;DHT22;47065;52.898;6.992;2023-02-22T14:21:20;9.70;99.90
61201;DHT22;47065;52.898;6.992;2023-02-22T14:23:54;9.70;99.90
61201;DHT22;47065;52.898;6.992;2023-02-22T14:26:37;9.80;99.90
61201;DHT22;47065;52.898;6.992;2023-02-22T14:34:20;9.90;99.90
61201;DHT22;47065;52.898;6.992;2023-02-22T14:39:49;9.90;99.90
61201;DHT22;47065;52.898;6.992;2023-02-22T14:42:35;9.90;99.90
61201;DHT22;47065;52.898;6.992;2023-02-22T14:47:38;9.90;99.90
61201;DHT22;47065;52.898;6.992;2023-02-22T14:50:18;9.90;99.90
61201;DHT22;47065;52.898;6.992;2023-02-22T14:52:59;9.90;99.90
61201;DHT22;47065;52.898;6.992;2023-02-22T14:55:26;9.90;99.90
61201;DHT22;47065;52.898;6.992;2023-02-22T14:58:06;9.90;99.90
61201;DHT22;47065;52.898;6.992;2023-02-22T15:00:45;9.80;99.90
61201;DHT22;47065;52.898;6.992;2023-02-22T15:03:32;9.90;99.90
61201;DHT22;47065;52.898;6.992;2023-02-22T15:08:40;9.90;99.90
61201;DHT22;47065;52.898;6.992;2023-02-22T15:11:20;9.90;99.90
61201;DHT22;47065;52.898;6.992;2023-02-22T15:13:52;9.90;99.90
61201;DHT22;47065;52.898;6.992;2023-02-22T15:16:20;9.90;99.90
61201;DHT22;47065;52.898;6.992;2023-02-22T15:18:48;9.90;99.90
61201;DHT22;47065;52.898;6.992;2023-02-22T15:21:19;9.90;99.90
61201;DHT22;47065;52.898;6.992;2023-02-22T15:23:58;9.90;99.90
61201;DHT22;47065;52.898;6.992;2023-02-22T15:26:33;9.90;99.90
61201;DHT22;47065;52.898;6.992;2023-02-22T15:29:14;9.90;99.90
61201;DHT22;47065;52.898;6.992;2023-02-22T15:31:40;9.90;99.90
61201;DHT22;47065;52.898;6.992;2023-02-22T15:36:41;9.90;99.90
61201;DHT22;47065;52.898;6.992;2023-02-22T15:39:29;9.90;99.90
61201;DHT22;47065;52.898;6.992;2023-02-22T15:42:11;9.90;99.90
61201;DHT22;47065;52.898;6.992;2023-02-22T15:44:46;9.80;99.90
61201;DHT22;47065;52.898;6.992;2023-02-22T15:47:20;9.90;99.90
61201;DHT22;47065;52.898;6.992;2023-02-22T15:50:19;9.80;99.90
61201;DHT22;47065;52.898;6.992;2023-02-22T15:53:23;9.80;99.90
61201;DHT22;47065;52.898;6.992;2023-02-22T15:55:55;9.80;99.90
61201;DHT22;47065;52.898;6.992;2023-02-22T15:58:23;9.80;99.90
61201;DHT22;47065;52.898;6.992;2023-02-22T16:01:05;9.80;99.90
61201;DHT22;47065;52.898;6.992;2023-02-22T16:03:38;9.80;99.90
61201;DHT22;47065;52.898;6.992;2023-02-22T16:06:23;9.80;99.90
61201;DHT22;47065;52.898;6.992;2023-02-22T16:08:53;9.80;99.90
61201;DHT22;47065;52.898;6.992;2023-02-22T16:11:41;9.80;99.90
61201;DHT22;47065;52.898;6.992;2023-02-22T16:14:49;9.80;99.90
61201;DHT22;47065;52.898;6.992;2023-02-22T16:17:36;9.80;99.90
61201;DHT22;47065;52.898;6.992;2023-02-22T16:22:43;9.70;99.90
61201;DHT22;47065;52.898;6.992;2023-02-22T16:27:48;9.70;99.90
61201;DHT22;47065;52.898;6.992;2023-02-22T16:32:48;9.60;99.90
61201;DHT22;47065;52.898;6.992;2023-02-22T16:35:14;9.60;99.90
61201;DHT22;47065;52.898;6.992;2023-02-22T16:37:48;9.70;99.90
61201;DHT22;47065;52.898;6.992;2023-02-22T16:40:27;9.60;99.90
61201;DHT22;47065;52.898;6.992;2023-02-22T16:42:58;9.50;99.90
61201;DHT22;47065;52.898;6.992;2023-02-22T16:45:24;9.60;99.90
61201;DHT22;47065;52.898;6.992;2023-02-22T16:47:50;9.60;99.90
61201;DHT22;47065;52.898;6.992;2023-02-22T16:50:18;9.50;99.90
61201;DHT22;47065;52.898;6.992;2023-02-22T16:52:44;9.40;99.90
61201;DHT22;47065;52.898;6.992;2023-02-22T16:55:12;9.40;99.90
61201;DHT22;47065;52.898;6.992;2023-02-22T16:57:39;9.40;99.90
61201;DHT22;47065;52.898;6.992;2023-02-22T17:00:10;9.30;99.90
61201;DHT22;47065;52.898;6.992;2023-02-22T17:02:38;9.30;99.90
61201;DHT22;47065;52.898;6.992;2023-02-22T17:05:04;9.20;99.90
61201;DHT22;47065;52.898;6.992;2023-02-22T17:07:30;9.10;99.90
61201;DHT22;47065;52.898;6.992;2023-02-22T17:09:56;9.10;99.90
61201;DHT22;47065;52.898;6.992;2023-02-22T17:12:23;9.10;99.90
61201;DHT22;47065;52.898;6.992;2023-02-22T17:14:49;9.00;99.90
61201;DHT22;47065;52.898;6.992;2023-02-22T17:17:16;9.00;99.90
61201;DHT22;47065;52.898;6.992;2023-02-22T17:19:42;8.90;99.90
61201;DHT22;47065;52.898;6.992;2023-02-22T17:22:19;8.90;99.90
61201;DHT22;47065;52.898;6.992;2023-02-22T17:24:45;8.90;99.90
61201;DHT22;47065;52.898;6.992;2023-02-22T17:27:11;8.80;99.90
61201;DHT22;47065;52.898;6.992;2023-02-22T17:29:37;8.80;99.90
61201;DHT22;47065;52.898;6.992;2023-02-22T17:32:05;8.80;99.90
61201;DHT22;47065;52.898;6.992;2023-02-22T17:34:32;8.80;99.90
61201;DHT22;47065;52.898;6.992;2023-02-22T17:36:57;8.70;99.90
61201;DHT22;47065;52.898;6.992;2023-02-22T17:39:23;8.80;99.90
61201;DHT22;47065;52.898;6.992;2023-02-22T17:41:51;8.70;99.90
61201;DHT22;47065;52.898;6.992;2023-02-22T17:44:23;8.70;99.90
61201;DHT22;47065;52.898;6.992;2023-02-22T17:46:48;8.70;99.90
61201;DHT22;47065;52.898;6.992;2023-02-22T17:49:14;8.70;99.90
61201;DHT22;47065;52.898;6.992;2023-02-22T17:51:40;8.70;99.90
61201;DHT22;47065;52.898;6.992;2023-02-22T17:54:06;8.70;99.90
61201;DHT22;47065;52.898;6.992;2023-02-22T17:56:31;8.70;99.90
61201;DHT22;47065;52.898;6.992;2023-02-22T17:58:57;8.70;99.90
61201;DHT22;47065;52.898;6.992;2023-02-22T18:01:29;8.70;99.90
61201;DHT22;47065;52.898;6.992;2023-02-22T18:03:57;8.80;99.90
61201;DHT22;47065;52.898;6.992;2023-02-22T18:06:25;8.70;99.90
61201;DHT22;47065;52.898;6.992;2023-02-22T18:08:54;8.80;99.90
61201;DHT22;47065;52.898;6.992;2023-02-22T18:11:20;8.80;99.90
61201;DHT22;47065;52.898;6.992;2023-02-22T18:13:51;8.70;99.90
61201;DHT22;47065;52.898;6.992;2023-02-22T18:16:17;8.80;99.90